Time;durP1;ratioP1;P1;durP2;ratioP2;P2;SDS_P1;SDS_P2;PMS_P1;PMS_P2;Temp;Humidity;BMP_temperature;BMP_pressure;BME280_temperature;BME280_humidity;BME280_pressure;Samples;Min_cycle;Max_cycle;Signal;HPM_P1;HPM_P2
2022/07/04 06:50:10;;;;;;;18.89;11.88;;;;;;;25.33;53.62;98797.20;356763;145;880339;-42
2022/07/04 06:51:13;;;;;;;15.76;12.22;;;;;;;25.22;53.78;98801.63;349095;151;857114;-41
2022/07/04 06:52:15;;;;;;;20.45;12.01;;;;;;;25.20;54.47;98795.64;338899;157;858179;-43
2022/07/04 06:53:16;;;;;;;21.18;12.74;;;;;;;25.20;54.83;98795.64;342575;156;857217;-44
2022/07/04 06:54:18;;;;;;;20.01;13.09;;;;;;;25.24;54.84;98807.63;339711;157;865342;-43
2022/07/04 06:55:20;;;;;;;23.83;12.61;;;;;;;25.29;55.17;98801.95;345491;154;865405;-44
2022/07/04 06:56:22;;;;;;;14.95;12.37;;;;;;;25.33;55.17;98802.50;349217;153;864547;-43
2022/07/04 06:57:24;;;;;;;19.64;12.65;;;;;;;25.36;55.02;98807.53;340745;157;857415;-43
2022/07/04 06:58:26;;;;;;;20.91;13.06;;;;;;;25.33;55.25;98802.50;348628;154;858064;-48
2022/07/04 06:59:28;;;;;;;21.55;13.17;;;;;;;25.43;54.92;98807.84;348358;153;865212;-44
2022/07/04 07:00:30;;;;;;;15.65;12.25;;;;;;;25.47;54.78;98796.02;348634;154;858025;-43
2022/07/04 07:01:33;;;;;;;19.33;13.41;;;;;;;25.51;54.86;98808.03;346767;153;860427;-43
2022/07/04 07:02:35;;;;;;;18.39;12.13;;;;;;;25.53;54.58;98803.43;349850;153;857373;-44
2022/07/04 07:03:37;;;;;;;17.89;12.49;;;;;;;25.55;54.64;98796.18;340460;157;857319;-46
2022/07/04 07:04:41;;;;;;;12.89;11.33;;;;;;;25.60;54.83;98793.95;348301;154;857363;-43
2022/07/04 07:05:42;;;;;;;14.67;11.68;;;;;;;25.58;54.85;98792.43;347754;154;859770;-45
2022/07/04 07:06:44;;;;;;;14.24;12.06;;;;;;;25.61;54.98;98792.16;347868;154;859493;-44
2022/07/04 07:07:46;;;;;;;16.47;11.57;;;;;;;25.63;54.65;98791.03;347904;154;864932;-43
2022/07/04 07:24:17;;;;;;;16.63;11.44;;;;;;;27.35;50.17;98770.88;403947;133;882106;-68
2022/07/04 07:25:19;;;;;;;15.52;11.37;;;;;;;27.02;50.89;98767.84;395803;135;858776;-67
2022/07/04 07:26:21;;;;;;;19.28;12.53;;;;;;;27.02;50.89;98767.84;374107;141;859576;-66
2022/07/04 07:27:23;;;;;;;16.13;12.27;;;;;;;26.93;50.78;98762.42;375719;141;859718;-67
2022/07/04 07:28:25;;;;;;;23.43;12.60;;;;;;;;;;376798;141;857929;-65
2022/07/04 07:29:26;;;;;;;17.86;12.61;;;;;;;;;;369900;143;857355;-66
2022/07/04 07:30:28;;;;;;;15.22;12.29;;;;;;;;;;378700;141;864892;-67
2022/07/04 07:31:30;;;;;;;18.68;12.29;;;;;;;;;;373345;141;865992;-70
2022/07/04 07:32:32;;;;;;;19.07;12.97;;;;;;;;;;380278;140;857559;-72
2022/07/04 07:33:33;;;;;;;19.06;12.01;;;;;;;;;;380411;140;859263;-72
2022/07/04 07:34:35;;;;;;;19.84;13.51;;;;;;;;;;378889;140;859490;-66
2022/07/04 07:35:37;;;;;;;16.09;12.54;;;;;;;;;;368074;144;864812;-65
2022/07/04 07:36:39;;;;;;;17.78;12.97;;;;;;;;;;370860;143;864957;-66
2022/07/04 07:37:40;;;;;;;15.01;12.39;;;;;;;;;;370788;144;858795;-66
2022/07/04 07:38:42;;;;;;;15.38;12.76;;;;;;;;;;372630;142;857366;-64
2022/07/04 07:39:44;;;;;;;18.14;11.90;;;;;;;;;;371613;142;859034;-65
2022/07/04 07:40:45;;;;;;;19.98;12.58;;;;;;;;;;375261;142;859107;-67
2022/07/04 07:41:47;;;;;;;15.85;12.24;;;;;;;;;;376796;142;864662;-67
2022/07/04 07:42:49;;;;;;;18.51;12.43;;;;;;;;;;375819;142;864272;-67
2022/07/04 07:43:54;;;;;;;18.17;12.63;;;;;;;;;;377053;142;857717;-66
2022/07/04 07:44:56;;;;;;;19.05;13.01;;;;;;;;;;376455;142;857471;-68
2022/07/04 07:45:59;;;;;;;20.29;12.26;;;;;;;;;;377002;142;857319;-67
2022/07/04 07:47:00;;;;;;;19.82;12.29;;;;;;;;;;377163;142;857448;-66
2022/07/04 07:48:02;;;;;;;16.09;12.24;;;;;;;;;;376848;142;857418;-67
2022/07/04 07:49:04;;;;;;;19.75;13.24;;;;;;;;;;377168;142;859675;-66
2022/07/04 07:50:06;;;;;;;19.43;12.24;;;;;;;;;;374396;142;857755;-66
2022/07/04 07:51:09;;;;;;;16.79;12.59;;;;;;;;;;371925;144;858778;-67
2022/07/04 07:52:11;;;;;;;15.77;12.29;;;;;;;;;;371742;144;866762;-68
2022/07/04 07:53:12;;;;;;;15.76;12.76;;;;;;;;;;373809;142;857393;-66
2022/07/04 07:54:16;;;;;;;15.54;11.87;;;;;;;;;;377036;142;864676;-68
2022/07/04 07:55:18;;;;;;;17.73;13.01;;;;;;;;;;371399;145;866166;-68
2022/07/04 07:56:20;;;;;;;16.01;11.90;;;;;;;;;;371979;144;859242;-67
2022/07/04 07:57:21;;;;;;;15.47;12.39;;;;;;;;;;372036;144;857396;-67
2022/07/04 07:58:23;;;;;;;14.94;11.70;;;;;;;;;;375623;142;865845;-65
2022/07/04 07:59:25;;;;;;;16.91;12.70;;;;;;;;;;375895;141;864949;-66
2022/07/04 08:00:26;;;;;;;17.36;12.25;;;;;;;;;;372975;143;864921;-66
2022/07/04 08:01:28;;;;;;;16.00;11.89;;;;;;;;;;369379;145;858588;-69
2022/07/04 08:05:11;;;;;;;14.74;11.52;;;;;;;;;;376849;142;859432;-67
2022/07/04 08:06:12;;;;;;;15.76;11.45;;;;;;;;;;374476;142;857538;-66
2022/07/04 08:07:14;;;;;;;16.48;11.77;;;;;;;;;;369827;145;865342;-66
2022/07/04 08:08:16;;;;;;;13.80;11.96;;;;;;;;;;370131;142;858042;-67
2022/07/04 08:09:17;;;;;;;14.81;10.99;;;;;;;;;;370007;145;859539;-65
2022/07/04 08:10:19;;;;;;;22.64;11.96;;;;;;;;;;373195;142;857520;-67
2022/07/04 08:11:20;;;;;;;16.59;11.51;;;;;;;;;;373312;142;865160;-66
2022/07/04 08:12:22;;;;;;;14.47;11.26;;;;;;;;;;370089;144;857281;-68
2022/07/04 08:13:24;;;;;;;15.24;10.82;;;;;;;;;;370139;142;860206;-66
2022/07/04 08:14:25;;;;;;;15.76;11.62;;;;;;;;;;369936;144;864833;-65
2022/07/04 08:15:27;;;;;;;14.35;11.44;;;;;;;;;;370056;144;859553;-65
2022/07/04 08:16:29;;;;;;;19.61;11.30;;;;;;;;;;369948;144;864926;-66
2022/07/04 08:17:30;;;;;;;13.96;10.84;;;;;;;;;;370064;144;857617;-70
2022/07/04 08:18:32;;;;;;;12.08;10.26;;;;;;;;;;375801;142;857580;-69
2022/07/04 08:19:34;;;;;;;14.06;10.61;;;;;;;;;;377276;142;865913;-69
2022/07/04 08:20:36;;;;;;;17.35;11.15;;;;;;;;;;376924;142;857396;-68
2022/07/04 08:21:38;;;;;;;15.97;10.45;;;;;;;;;;370152;145;857663;-66
2022/07/04 08:22:41;;;;;;;14.55;10.86;;;;;;;;;;370084;142;857417;-67
2022/07/04 08:23:43;;;;;;;14.80;11.15;;;;;;;;;;368333;146;857442;-66
2022/07/04 08:24:45;;;;;;;17.98;11.09;;;;;;;;;;367416;145;866684;-66
2022/07/04 08:25:47;;;;;;;15.60;11.16;;;;;;;;;;371298;145;857342;-66
2022/07/04 08:26:48;;;;;;;17.96;11.09;;;;;;;;;;369008;144;865306;-66
2022/07/04 08:27:50;;;;;;;16.92;10.81;;;;;;;;;;365252;147;864947;-66
2022/07/04 08:28:52;;;;;;;14.16;10.96;;;;;;;;;;366875;143;864951;-67
2022/07/04 08:29:54;;;;;;;16.53;11.16;;;;;;;;;;365935;147;865379;-66
2022/07/04 08:30:56;;;;;;;15.36;10.26;;;;;;;;;;365938;147;857270;-66
2022/07/04 08:31:58;;;;;;;14.75;10.67;;;;;;;;;;365819;147;859393;-66
2022/07/04 08:33:00;;;;;;;14.86;10.52;;;;;;;;;;365685;145;865721;-66
2022/07/04 08:34:01;;;;;;;13.75;10.82;;;;;;;;;;365271;147;857336;-66
2022/07/04 08:35:04;;;;;;;15.63;10.79;;;;;;;;;;369441;143;860193;-66
2022/07/04 08:36:05;;;;;;;14.18;10.83;;;;;;;;;;366836;143;859193;-67
2022/07/04 08:37:07;;;;;;;15.62;10.75;;;;;;;;;;368543;146;857690;-67
2022/07/04 08:38:08;;;;;;;17.28;10.24;;;;;;;;;;370563;144;857652;-66
2022/07/04 08:39:10;;;;;;;17.03;10.78;;;;;;;;;;380269;141;857554;-67
2022/07/04 08:40:12;;;;;;;18.73;10.59;;;;;;;;;;372147;144;857371;-66
2022/07/04 08:41:15;;;;;;;16.51;10.73;;;;;;;;;;367930;143;857505;-66
2022/07/04 08:42:17;;;;;;;13.63;10.58;;;;;;;;;;374285;143;857637;-67
2022/07/04 08:43:19;;;;;;;13.79;10.27;;;;;;;;;;368515;145;859016;-66
2022/07/04 08:44:20;;;;;;;14.41;11.11;;;;;;;;;;365889;147;857486;-66
2022/07/04 08:45:24;;;;;;;15.86;10.94;;;;;;;;;;357103;150;859054;-66
2022/07/04 08:46:25;;;;;;;15.06;10.16;;;;;;;;;;357490;147;865011;-66
2022/07/04 08:47:27;;;;;;;19.62;11.39;;;;;;;;;;365888;147;859592;-68
2022/07/04 08:48:30;;;;;;;13.84;10.24;;;;;;;;;;358123;147;858506;-67
2022/07/04 08:49:31;;;;;;;17.69;10.98;;;;;;;;;;363238;145;866763;-69
2022/07/04 08:50:34;;;;;;;13.49;9.71;;;;;;;;;;356228;147;857475;-69
2022/07/04 08:51:47;;;;;;;18.06;10.23;;;;;;;;;;360324;147;858868;-66
2022/07/04 08:52:53;;;;;;;12.32;10.13;;;;;;;;;;366486;143;857411;-66
2022/07/04 08:53:57;;;;;;;18.99;10.89;;;;;;;;;;374783;143;859178;-66
2022/07/04 08:58:59;;;;;;;15.45;9.70;;;;;;;;;;374636;143;857371;-64
2022/07/04 09:00:01;;;;;;;15.54;9.39;;;;;;;;;;374999;143;857406;-63
2022/07/04 09:01:03;;;;;;;13.62;10.24;;;;;;;;;;375002;143;857568;-65
2022/07/04 09:02:05;;;;;;;14.23;10.47;;;;;;;;;;369644;143;865553;-65
2022/07/04 09:03:07;;;;;;;12.78;10.39;;;;;;;;;;365160;147;857959;-66
2022/07/04 09:04:09;;;;;;;15.69;11.24;;;;;;;;;;365259;147;865870;-64
2022/07/04 09:05:10;;;;;;;17.03;9.91;;;;;;;;;;365198;147;865052;-65
2022/07/04 09:06:13;;;;;;;13.12;10.49;;;;;;;;;;370953;145;857304;-65
2022/07/04 09:07:15;;;;;;;12.42;9.16;;;;;;;;;;365217;147;865708;-65
2022/07/04 09:08:17;;;;;;;14.14;9.72;;;;;;;;;;370996;144;865042;-66
2022/07/04 09:09:18;;;;;;;13.21;10.19;;;;;;;;;;365216;147;857426;-66
2022/07/04 09:10:20;;;;;;;18.37;10.21;;;;;;;;;;365405;147;866452;-65
2022/07/04 09:11:22;;;;;;;12.69;9.85;;;;;;;;;;365293;147;865098;-65
2022/07/04 09:12:25;;;;;;;12.44;9.43;;;;;;;;;;371144;145;857959;-66
2022/07/04 09:13:26;;;;;;;15.16;10.58;;;;;;;;;;365328;147;867148;-64
2022/07/04 09:14:28;;;;;;;15.65;10.38;;;;;;;;;;372516;143;864875;-65
2022/07/04 09:15:31;;;;;;;15.06;10.35;;;;;;;;;;374724;143;857462;-65
2022/07/04 09:16:32;;;;;;;13.43;10.01;;;;;;;;;;374591;143;865645;-65
2022/07/04 09:17:34;;;;;;;15.91;10.59;;;;;;;;;;374642;143;865082;-65
2022/07/04 09:18:36;;;;;;;12.08;10.29;;;;;;;;;;374707;143;858388;-65
2022/07/04 09:19:37;;;;;;;15.88;10.32;;;;;;;;;;374684;143;857434;-65
2022/07/04 09:20:39;;;;;;;18.89;10.76;;;;;;;;;;374600;143;866065;-65
2022/07/04 09:21:44;;;;;;;12.14;10.14;;;;;;;;;;365845;147;858419;-65
2022/07/04 09:22:47;;;;;;;18.66;10.32;;;;;;;;;;366376;143;857518;-65
2022/07/04 09:23:49;;;;;;;13.05;9.43;;;;;;;;;;374647;143;857428;-66
2022/07/04 09:24:52;;;;;;;13.46;8.78;;;;;;;;;;373902;143;857483;-71
2022/07/04 09:26:08;;;;;;;10.43;8.05;;;;;;;;;;372967;144;859885;-70
2022/07/04 09:27:10;;;;;;;14.07;8.48;;;;;;;;;;372865;144;857453;-65
2022/07/04 09:28:11;;;;;;;13.26;9.09;;;;;;;;;;373027;144;858277;-65
2022/07/04 09:29:13;;;;;;;16.29;9.54;;;;;;;;;;372912;144;865440;-65
2022/07/04 09:30:16;;;;;;;11.61;8.74;;;;;;;;;;373038;144;857430;-65
2022/07/04 09:31:19;;;;;;;12.74;8.77;;;;;;;;;;373081;144;858486;-69
2022/07/04 09:32:24;;;;;;;10.86;8.96;;;;;;;;;;373045;144;857500;-70
2022/07/04 09:33:45;;;;;;;13.39;9.16;;;;;;;;;;372865;144;859772;-69
2022/07/04 09:34:54;;;;;;;12.06;8.35;;;;;;;;;;372785;144;858841;-65
2022/07/04 09:35:55;;;;;;;12.71;8.55;;;;;;;;;;372814;144;859994;-65
2022/07/04 09:36:58;;;;;;;12.86;8.83;;;;;;;;;;372988;144;858379;-67
2022/07/04 09:38:02;;;;;;;14.80;8.58;;;;;;;;;;373103;144;866633;-65
2022/07/04 09:39:06;;;;;;;13.54;8.00;;;;;;;;;;372853;144;859599;-65
2022/07/04 09:40:09;;;;;;;10.10;8.09;;;;;;;;;;372988;144;858127;-65
2022/07/04 09:41:29;;;;;;;16.38;8.45;;;;;;;;;;372987;144;858940;-65
2022/07/04 09:42:37;;;;;;;12.34;8.49;;;;;;;;;;372568;144;857651;-65
2022/07/04 09:43:41;;;;;;;14.09;8.17;;;;;;;;;;372215;144;857497;-64
2022/07/04 09:44:43;;;;;;;12.66;7.91;;;;;;;;;;371986;144;857560;-65
2022/07/04 09:45:55;;;;;;;14.26;7.71;;;;;;;;;;372989;144;857367;-66
2022/07/04 09:46:56;;;;;;;11.28;7.82;;;;;;;;;;372702;144;858162;-66
2022/07/04 09:47:59;;;;;;;12.33;8.75;;;;;;;;;;373003;144;859381;-65
2022/07/04 09:49:01;;;;;;;14.01;8.45;;;;;;;;;;372842;144;865906;-65
2022/07/04 09:50:04;;;;;;;13.22;8.18;;;;;;;;;;372952;144;865610;-67
2022/07/04 09:51:05;;;;;;;15.34;8.14;;;;;;;;;;370308;144;857381;-66
2022/07/04 09:52:07;;;;;;;10.33;7.98;;;;;;;;;;373193;144;857534;-67
2022/07/04 09:53:09;;;;;;;11.86;8.12;;;;;;;;;;369850;145;858233;-65
2022/07/04 09:54:18;;;;;;;12.01;7.63;;;;;;;;;;374198;139;857484;-66
2022/07/04 09:55:27;;;;;;;16.41;7.81;;;;;;;;;;372759;144;858846;-66
2022/07/04 09:56:31;;;;;;;11.57;8.34;;;;;;;;;;376493;143;858876;-65
2022/07/04 09:57:33;;;;;;;10.56;8.23;;;;;;;;;;375731;142;858157;-65
2022/07/04 09:58:34;;;;;;;11.78;8.29;;;;;;;;;;376716;139;858460;-65
2022/07/04 09:59:36;;;;;;;11.89;8.84;;;;;;;;;;376618;143;865033;-65
2022/07/04 10:00:39;;;;;;;14.67;8.77;;;;;;;;;;376653;143;865016;-64
2022/07/04 10:01:40;;;;;;;11.61;9.13;;;;;;;;;;376189;143;857783;-65
2022/07/04 10:02:42;;;;;;;13.51;9.09;;;;;;;;;;376811;143;858042;-64
2022/07/04 10:03:44;;;;;;;12.21;8.55;;;;;;;;;;376657;143;865253;-67
2022/07/04 10:04:47;;;;;;;13.16;8.74;;;;;;;;;;376813;143;866898;-65
2022/07/04 10:06:10;;;;;;;11.68;8.58;;;;;;;;;;369420;145;857939;-65
2022/07/04 10:07:13;;;;;;;16.14;8.48;;;;;;;;;;372099;143;857327;-65
2022/07/04 10:08:14;;;;;;;10.69;8.83;;;;;;;;;;369071;145;858403;-67
2022/07/04 10:09:17;;;;;;;11.56;8.12;;;;;;;;;;369254;143;858345;-64
2022/07/04 10:10:23;;;;;;;10.43;8.94;;;;;;;;;;376649;143;857402;-64
2022/07/04 10:11:27;;;;;;;10.77;8.01;;;;;;;;;;376561;139;858036;-66
2022/07/04 10:12:29;;;;;;;15.05;8.86;;;;;;;;;;375804;142;858572;-65
2022/07/04 10:13:31;;;;;;;21.70;8.34;;;;;;;;;;376538;143;857742;-66
2022/07/04 10:14:33;;;;;;;9.46;7.81;;;;;;;;;;376440;143;864763;-65
2022/07/04 10:15:39;;;;;;;13.27;8.44;;;;;;;;;;369037;145;857955;-66
2022/07/04 10:16:41;;;;;;;12.57;7.92;;;;;;;;;;369647;143;859449;-66
2022/07/04 10:17:43;;;;;;;10.99;7.87;;;;;;;;;;376822;143;857910;-65
2022/07/04 10:18:44;;;;;;;10.96;7.89;;;;;;;;;;376736;143;858824;-65
2022/07/04 10:19:46;;;;;;;12.11;7.94;;;;;;;;;;376754;143;865743;-66
2022/07/04 10:20:51;;;;;;;14.08;8.30;;;;;;;;;;376702;139;859376;-65
2022/07/04 10:21:53;;;;;;;10.09;8.00;;;;;;;;;;376616;143;858958;-67
2022/07/04 10:22:55;;;;;;;10.64;7.52;;;;;;;;;;370231;145;857456;-68
2022/07/04 10:23:57;;;;;;;8.39;7.31;;;;;;;;;;370334;143;857385;-67
2022/07/04 10:24:59;;;;;;;11.11;7.65;;;;;;;;;;376872;143;865808;-67
2022/07/04 10:26:00;;;;;;;13.55;9.01;;;;;;;;;;376943;143;858266;-66
2022/07/04 10:27:02;;;;;;;10.09;7.97;;;;;;;;;;376864;143;857988;-67
2022/07/04 10:28:04;;;;;;;11.35;6.96;;;;;;;;;;376956;143;858595;-66
2022/07/04 10:29:06;;;;;;;12.01;7.09;;;;;;;;;;376763;143;858797;-67
2022/07/04 10:30:09;;;;;;;11.33;6.96;;;;;;;;;;376880;143;865437;-67
2022/07/04 10:31:12;;;;;;;10.28;7.79;;;;;;;;;;376799;143;857499;-68
2022/07/04 10:32:14;;;;;;;10.09;7.03;;;;;;;;;;376816;143;857448;-68
2022/07/04 10:33:16;;;;;;;11.64;7.27;;;;;;;;;;377027;143;859214;-69
2022/07/04 10:34:17;;;;;;;9.06;7.39;;;;;;;;;;377090;143;857460;-73
2022/07/04 10:35:21;;;;;;;14.32;7.94;;;;;;;;;;376926;143;858361;-68
2022/07/04 10:36:23;;;;;;;11.08;7.16;;;;;;;;;;374490;143;857435;-66
2022/07/04 10:37:26;;;;;;;10.81;7.31;;;;;;;;;;376601;143;859626;-66
2022/07/04 10:38:31;;;;;;;11.29;7.32;;;;;;;;;;376911;143;859161;-66
2022/07/04 10:39:33;;;;;;;10.87;6.76;;;;;;;;;;376625;139;865030;-66
2022/07/04 10:40:44;;;;;;;7.79;6.59;;;;;;;;;;376917;143;861064;-66
2022/07/04 10:41:57;;;;;;;10.44;6.45;;;;;;;;;;376894;143;857811;-69
2022/07/04 10:42:58;;;;;;;9.88;6.22;;;;;;;;;;376756;143;860089;-67
2022/07/04 10:44:01;;;;;;;9.92;5.97;;;;;;;;;;377143;143;858992;-69
2022/07/04 10:45:03;;;;;;;8.73;5.87;;;;;;;;;;377099;143;858292;-68
2022/07/04 10:46:07;;;;;;;10.03;5.75;;;;;;;;;;377131;143;865328;-70
2022/07/04 10:47:08;;;;;;;8.58;6.13;;;;;;;;;;369834;143;858652;-69
2022/07/04 10:48:10;;;;;;;8.36;5.94;;;;;;;;;;362752;145;859206;-70
2022/07/04 10:49:17;;;;;;;8.20;6.11;;;;;;;;;;370549;142;858122;-69
2022/07/04 10:50:28;;;;;;;10.37;6.39;;;;;;;;;;377446;142;857404;-70
2022/07/04 10:51:43;;;;;;;9.53;6.19;;;;;;;;;;376793;143;858956;-68
2022/07/04 10:52:47;;;;;;;7.39;5.98;;;;;;;;;;376815;143;859696;-67
2022/07/04 10:53:58;;;;;;;7.94;5.98;;;;;;;;;;374218;143;857473;-67
2022/07/04 10:55:00;;;;;;;10.67;6.24;;;;;;;;;;374149;141;857534;-66
2022/07/04 10:56:22;;;;;;;10.46;6.10;;;;;;;;;;366568;143;857502;-67
2022/07/04 10:57:24;;;;;;;10.20;5.92;;;;;;;;;;367359;142;857913;-67
2022/07/04 10:58:38;;;;;;;7.31;5.68;;;;;;;;;;368346;146;857798;-67
2022/07/04 10:59:42;;;;;;;7.77;5.47;;;;;;;;;;372154;141;860687;-69
2022/07/04 11:01:02;;;;;;;8.12;5.71;;;;;;;;;;372337;144;859180;-68
2022/07/04 11:02:06;;;;;;;8.41;5.50;;;;;;;;;;372683;144;857313;-70
2022/07/04 11:03:10;;;;;;;7.57;5.61;;;;;;;;;;372825;144;859840;-70
2022/07/04 11:04:11;;;;;;;12.00;5.83;;;;;;;;;;370671;144;857888;-69
2022/07/04 11:05:14;;;;;;;7.04;5.45;;;;;;;;;;366766;141;857982;-67
2022/07/04 11:06:36;;;;;;;6.89;5.94;;;;;;;;;;365805;146;857435;-67
2022/07/04 11:07:40;;;;;;;10.57;5.57;;;;;;;;;;365748;147;860076;-68
2022/07/04 11:09:00;;;;;;;9.61;5.44;;;;;;;;;;365792;143;859365;-68
2022/07/04 11:10:13;;;;;;;7.61;5.60;;;;;;;;;;365792;147;858950;-67
2022/07/04 11:11:32;;;;;;;8.47;5.47;;;;;;;;;;365751;147;858849;-67
2022/07/04 11:12:34;;;;;;;8.09;5.77;;;;;;;;;;346088;155;858054;-67
2022/07/04 11:13:36;;;;;;;9.92;5.87;;;;;;;;;;346312;153;857524;-67
2022/07/04 11:14:41;;;;;;;7.66;5.72;;;;;;;;;;346311;155;857572;-68
2022/07/04 11:15:45;;;;;;;7.44;5.73;;;;;;;;;;345942;155;865738;-68
2022/07/04 11:16:57;;;;;;;11.13;5.78;;;;;;;;;;346152;152;857622;-67
2022/07/04 11:17:57;;;;;;;8.21;6.12;;;;;;;;;;345067;152;864970;-68
2022/07/04 11:18:59;;;;;;;7.69;5.73;;;;;;;;;;346274;155;864719;-68
2022/07/04 11:20:03;;;;;;;7.64;5.66;;;;;;;;;;346366;155;857842;-68
2022/07/04 11:21:07;;;;;;;10.85;6.42;;;;;;;;;;346136;155;859732;-69
2022/07/04 11:22:10;;;;;;;8.33;5.94;;;;;;;;;;346278;152;860943;-68
2022/07/04 11:23:12;;;;;;;11.53;5.82;;;;;;;;;;346219;153;857536;-69
2022/07/04 11:24:14;;;;;;;8.13;5.37;;;;;;;;;;346282;155;859193;-69
2022/07/04 11:25:16;;;;;;;14.21;6.52;;;;;;;;;;346210;152;857872;-68
2022/07/04 11:26:18;;;;;;;8.51;5.51;;;;;;;;;;346380;155;857444;-69
2022/07/04 11:27:22;;;;;;;7.71;5.49;;;;;;;;;;346229;155;858651;-68
2022/07/04 11:28:25;;;;;;;6.48;5.83;;;;;;;;;;345778;155;857482;-68
2022/07/04 11:29:28;;;;;;;10.17;5.82;;;;;;;;;;346206;152;857551;-68
2022/07/04 11:30:29;;;;;;;10.78;5.81;;;;;;;;;;346155;155;857572;-68
2022/07/04 11:31:40;;;;;;;8.49;5.46;;;;;;;;;;346355;153;857545;-68
2022/07/04 11:32:42;;;;;;;12.01;5.55;;;;;;;;;;346192;155;857514;-68
2022/07/04 11:33:44;;;;;;;9.55;5.59;;;;;;;;;;346341;155;857627;-68
2022/07/04 11:34:46;;;;;;;6.67;5.31;;;;;;;;;;346312;155;857951;-70
2022/07/04 11:36:03;;;;;;;7.29;5.18;;;;;;;;;;346160;155;864842;-68
2022/07/04 11:37:05;;;;;;;11.42;5.91;;;;;;;;;;345993;155;859207;-68
2022/07/04 11:38:07;;;;;;;7.71;5.59;;;;;;;;;;346232;155;858329;-70
2022/07/04 11:39:09;;;;;;;8.04;6.09;;;;;;;;;;346252;155;864973;-68
2022/07/04 11:45:47;;;;;;;10.83;5.96;;;;;;;;;;346088;155;857520;-68
2022/07/04 11:46:48;;;;;;;12.11;5.79;;;;;;;;;;346301;155;857490;-68
2022/07/04 11:47:50;;;;;;;7.80;6.03;;;;;;;;;;355426;147;858717;-68
2022/07/04 11:48:52;;;;;;;8.70;5.57;;;;;;;;;;365901;146;864604;-68
2022/07/04 11:49:54;;;;;;;9.37;6.17;;;;;;;;;;365872;146;866152;-66
2022/07/04 11:50:56;;;;;;;8.02;5.47;;;;;;;;;;365852;144;857494;-69
2022/07/04 11:51:58;;;;;;;10.59;6.27;;;;;;;;;;365889;146;859036;-68
2022/07/04 11:52:59;;;;;;;8.98;5.60;;;;;;;;;;365903;146;865800;-67
2022/07/04 11:54:04;;;;;;;10.45;6.25;;;;;;;;;;365760;146;857948;-68
2022/07/04 11:55:10;;;;;;;8.70;6.17;;;;;;;;;;367372;145;859328;-69
2022/07/04 11:56:12;;;;;;;9.10;6.23;;;;;;;;;;368760;145;857457;-69
2022/07/04 11:57:14;;;;;;;11.05;6.30;;;;;;;;;;369042;146;857507;-68
2022/07/04 11:58:16;;;;;;;10.89;6.68;;;;;;;;;;368978;145;857643;-69
2022/07/04 11:59:18;;;;;;;18.98;7.01;;;;;;;;;;369065;142;866086;-68
2022/07/04 12:00:20;;;;;;;8.96;6.35;;;;;;;;;;369083;145;864274;-69
2022/07/04 12:01:27;;;;;;;16.25;6.47;;;;;;;;;;369112;142;865056;-68
2022/07/04 12:02:30;;;;;;;9.81;6.29;;;;;;;;;;368456;146;857403;-69
2022/07/04 12:03:34;;;;;;;8.91;6.06;;;;;;;;;;369129;146;857107;-68
2022/07/04 12:04:38;;;;;;;10.72;6.25;;;;;;;;;;369007;146;857013;-68
2022/07/04 12:05:40;;;;;;;7.49;5.94;;;;;;;;;;368994;146;866819;-68
2022/07/04 12:06:41;;;;;;;13.66;5.91;;;;;;;;;;369163;145;857413;-69
2022/07/04 12:07:44;;;;;;;8.19;6.08;;;;;;;;;;369087;142;864997;-67
2022/07/04 12:08:46;;;;;;;12.93;6.13;;;;;;;;;;369144;146;859290;-67
2022/07/04 12:09:47;;;;;;;8.20;5.60;;;;;;;;;;369088;142;857451;-68
2022/07/04 12:10:49;;;;;;;6.21;5.54;;;;;;;;;;370316;142;859166;-68
2022/07/04 12:11:55;;;;;;;8.34;5.82;;;;;;;;;;375733;139;865188;-67
2022/07/04 12:13:10;;;;;;;7.41;5.95;;;;;;;;;;373790;140;864774;-68
2022/07/04 12:14:14;;;;;;;9.13;6.19;;;;;;;;;;374323;142;857468;-68
2022/07/04 12:15:16;;;;;;;8.81;5.99;;;;;;;;;;372967;140;859783;-69
2022/07/04 12:16:19;;;;;;;7.39;6.12;;;;;;;;;;372531;142;857821;-68
2022/07/04 12:17:21;;;;;;;8.37;5.94;;;;;;;;;;372754;142;857843;-68
2022/07/04 12:18:28;;;;;;;13.19;6.20;;;;;;;;;;375094;142;857831;-68
2022/07/04 12:19:29;;;;;;;7.77;5.67;;;;;;;;;;375042;142;859235;-69
2022/07/04 12:20:32;;;;;;;7.53;6.10;;;;;;;;;;375313;142;857634;-68
2022/07/04 12:21:34;;;;;;;7.11;5.52;;;;;;;;;;376509;138;857625;-66
2022/07/04 12:22:40;;;;;;;8.93;6.03;;;;;;;;;;374604;143;857522;-67
2022/07/04 12:23:42;;;;;;;9.27;5.85;;;;;;;;;;374164;140;865546;-68
2022/07/04 12:24:43;;;;;;;8.87;5.91;;;;;;;;;;374532;143;859302;-68
2022/07/04 12:25:46;;;;;;;6.56;5.86;;;;;;;;;;374522;142;859315;-69
2022/07/04 12:26:47;;;;;;;8.04;6.09;;;;;;;;;;373986;141;857499;-68
2022/07/04 12:27:53;;;;;;;10.15;6.09;;;;;;;;;;373686;142;859365;-68
2022/07/04 12:28:56;;;;;;;7.11;6.01;;;;;;;;;;375077;142;857672;-68
2022/07/04 12:29:59;;;;;;;8.82;5.65;;;;;;;;;;373687;142;858058;-69
2022/07/04 12:31:00;;;;;;;8.35;6.02;;;;;;;;;;375033;142;859150;-67
2022/07/04 12:32:02;;;;;;;7.74;6.01;;;;;;;;;;375110;142;857955;-69
2022/07/04 12:33:05;;;;;;;8.65;5.62;;;;;;;;;;372395;142;858349;-72
2022/07/04 12:34:16;;;;;;;8.97;5.56;;;;;;;;;;373048;142;865190;-71
2022/07/04 12:35:38;;;;;;;10.03;5.42;;;;;;;;;;374708;142;858430;-69
2022/07/04 12:36:55;;;;;;;8.77;5.49;;;;;;;;;;372221;143;858474;-68
2022/07/04 12:38:01;;;;;;;7.45;5.34;;;;;;;;;;370828;143;857378;-66
2022/07/04 12:39:03;;;;;;;7.37;5.84;;;;;;;;;;376183;139;859581;-68
2022/07/04 12:40:08;;;;;;;9.19;5.75;;;;;;;;;;366118;144;859261;-68
2022/07/04 12:41:12;;;;;;;7.86;5.73;;;;;;;;;;369932;142;857499;-68
2022/07/04 12:42:17;;;;;;;14.18;5.91;;;;;;;;;;372898;140;857550;-67
2022/07/04 12:43:18;;;;;;;9.67;5.26;;;;;;;;;;370186;142;865818;-68
2022/07/04 12:44:21;;;;;;;8.10;5.59;;;;;;;;;;370317;145;865472;-68
2022/07/04 12:45:23;;;;;;;8.19;5.60;;;;;;;;;;370519;142;858491;-68
2022/07/04 12:46:31;;;;;;;10.25;5.88;;;;;;;;;;370316;145;857466;-68
2022/07/04 12:47:33;;;;;;;8.64;5.51;;;;;;;;;;370288;145;857445;-68
2022/07/04 12:48:35;;;;;;;8.75;5.89;;;;;;;;;;370438;145;858637;-68
2022/07/04 12:49:36;;;;;;;8.28;5.44;;;;;;;;;;370495;142;858959;-68
2022/07/04 12:50:38;;;;;;;8.39;5.31;;;;;;;;;;370506;145;856951;-69
2022/07/04 12:51:40;;;;;;;9.01;5.93;;;;;;;;;;370398;145;865915;-68
2022/07/04 12:52:42;;;;;;;13.86;5.65;;;;;;;;;;370529;142;857283;-69
2022/07/04 12:53:45;;;;;;;8.85;5.95;;;;;;;;;;370407;145;857766;-69
2022/07/04 12:54:48;;;;;;;7.60;5.41;;;;;;;;;;370505;145;857493;-69
2022/07/04 12:55:50;;;;;;;9.29;5.49;;;;;;;;;;363740;147;857485;-69
2022/07/04 12:56:51;;;;;;;8.00;5.64;;;;;;;;;;364871;147;858528;-67
2022/07/04 12:57:53;;;;;;;8.49;6.31;;;;;;;;;;364764;147;866358;-67
2022/07/04 12:58:55;;;;;;;11.66;5.82;;;;;;;;;;364849;147;859577;-67
2022/07/04 12:59:56;;;;;;;9.23;6.16;;;;;;;;;;364760;144;864911;-67
2022/07/04 13:00:58;;;;;;;8.81;5.89;;;;;;;;;;364854;147;865719;-68
2022/07/04 13:02:00;;;;;;;10.94;5.79;;;;;;;;;;364800;144;857849;-67
2022/07/04 13:03:01;;;;;;;7.24;5.72;;;;;;;;;;365005;144;857461;-71
2022/07/04 13:04:03;;;;;;;7.79;5.61;;;;;;;;;;365044;147;857928;-69
2022/07/04 13:05:05;;;;;;;10.04;5.96;;;;;;;;;;365049;147;857934;-71
2022/07/04 13:06:07;;;;;;;11.56;6.20;;;;;;;;;;364828;147;865033;-67
2022/07/04 13:07:13;;;;;;;7.70;6.10;;;;;;;;;;364900;147;858719;-67
2022/07/04 13:08:15;;;;;;;9.21;5.83;;;;;;;;;;364814;147;858475;-66
2022/07/04 13:09:16;;;;;;;11.31;6.29;;;;;;;;;;364793;147;858478;-68
2022/07/04 13:10:18;;;;;;;11.74;6.19;;;;;;;;;;364744;144;858234;-67
2022/07/04 13:12:40;;;;;;;8.98;5.64;;;;;;;;;;364629;147;860325;-69
2022/07/04 13:13:41;;;;;;;9.08;5.56;;;;;;;;;;364941;147;860932;-70
2022/07/04 13:14:43;;;;;;;6.30;5.41;;;;;;;;;;365099;147;857601;-69
2022/07/04 13:15:45;;;;;;;12.42;5.48;;;;;;;;;;364910;147;860503;-70
2022/07/04 13:16:47;;;;;;;7.46;5.49;;;;;;;;;;364773;144;857522;-67
2022/07/04 13:17:48;;;;;;;7.84;5.97;;;;;;;;;;364633;147;864770;-66
2022/07/04 13:18:50;;;;;;;10.03;5.70;;;;;;;;;;364708;147;864620;-67
2022/07/04 13:19:55;;;;;;;7.35;5.77;;;;;;;;;;364813;147;857394;-68
2022/07/04 13:20:57;;;;;;;8.54;5.49;;;;;;;;;;365025;146;864731;-68